sensor_id;sensor_type;location;lat;lon;timestamp;P1;durP1;ratioP1;P2;durP2;ratioP2
39276;SDS011;63149;48.086;-1.606;2023-03-16T06:02:39;9.57;;;3.22;;
39276;SDS011;63149;48.086;-1.606;2023-03-16T06:05:07;12.02;;;3.75;;
39276;SDS011;63149;48.086;-1.606;2023-03-16T06:07:35;11.85;;;3.47;;
39276;SDS011;63149;48.086;-1.606;2023-03-16T06:10:02;9.27;;;3.10;;
39276;SDS011;63149;48.086;-1.606;2023-03-16T06:12:30;9.55;;;3.55;;
39276;SDS011;63149;48.086;-1.606;2023-03-16T06:14:58;10.23;;;3.50;;
39276;SDS011;63149;48.086;-1.606;2023-03-16T06:17:27;11.77;;;4.32;;
39276;SDS011;63149;48.086;-1.606;2023-03-16T06:19:53;7.07;;;3.80;;
39276;SDS011;63149;48.086;-1.606;2023-03-16T06:22:20;11.65;;;6.32;;
39276;SDS011;63149;48.086;-1.606;2023-03-16T06:24:48;11.73;;;4.75;;
39276;SDS011;63149;48.086;-1.606;2023-03-16T06:27:15;19.98;;;4.85;;
39276;SDS011;63149;48.086;-1.606;2023-03-16T06:29:44;9.68;;;3.88;;
39276;SDS011;63149;48.086;-1.606;2023-03-16T06:32:11;7.45;;;4.05;;
39276;SDS011;63149;48.086;-1.606;2023-03-16T06:34:40;8.55;;;3.70;;
39276;SDS011;63149;48.086;-1.606;2023-03-16T06:37:07;8.02;;;4.07;;
39276;SDS011;63149;48.086;-1.606;2023-03-16T06:39:34;9.13;;;4.03;;
39276;SDS011;63149;48.086;-1.606;2023-03-16T06:42:01;9.18;;;4.32;;
39276;SDS011;63149;48.086;-1.606;2023-03-16T06:44:29;6.28;;;3.75;;
39276;SDS011;63149;48.086;-1.606;2023-03-16T06:46:56;15.52;;;7.25;;
39276;SDS011;63149;48.086;-1.606;2023-03-16T06:49:23;17.45;;;4.85;;
39276;SDS011;63149;48.086;-1.606;2023-03-16T06:51:52;9.85;;;3.92;;
39276;SDS011;63149;48.086;-1.606;2023-03-16T06:54:19;6.85;;;4.00;;
39276;SDS011;63149;48.086;-1.606;2023-03-16T06:56:46;8.88;;;3.75;;
39276;SDS011;63149;48.086;-1.606;2023-03-16T06:59:12;11.75;;;3.60;;
39276;SDS011;63149;48.086;-1.606;2023-03-16T07:01:39;7.60;;;3.40;;
39276;SDS011;63149;48.086;-1.606;2023-03-16T07:04:08;8.02;;;3.95;;
39276;SDS011;63149;48.086;-1.606;2023-03-16T07:06:36;8.30;;;3.03;;
39276;SDS011;63149;48.086;-1.606;2023-03-16T07:09:05;6.90;;;3.55;;
39276;SDS011;63149;48.086;-1.606;2023-03-16T07:11:32;9.50;;;4.40;;
39276;SDS011;63149;48.086;-1.606;2023-03-16T07:13:59;7.60;;;3.83;;
39276;SDS011;63149;48.086;-1.606;2023-03-16T07:16:26;6.10;;;3.35;;
39276;SDS011;63149;48.086;-1.606;2023-03-16T07:18:53;8.40;;;3.70;;
39276;SDS011;63149;48.086;-1.606;2023-03-16T07:21:20;14.18;;;4.00;;
39276;SDS011;63149;48.086;-1.606;2023-03-16T07:23:47;9.52;;;3.70;;
39276;SDS011;63149;48.086;-1.606;2023-03-16T07:26:17;6.97;;;2.90;;
39276;SDS011;63149;48.086;-1.606;2023-03-16T07:28:44;7.70;;;3.47;;
39276;SDS011;63149;48.086;-1.606;2023-03-16T07:31:10;7.43;;;3.20;;
39276;SDS011;63149;48.086;-1.606;2023-03-16T07:33:38;8.15;;;3.20;;
39276;SDS011;63149;48.086;-1.606;2023-03-16T07:36:06;8.30;;;3.10;;
39276;SDS011;63149;48.086;-1.606;2023-03-16T07:38:34;8.50;;;3.15;;
39276;SDS011;63149;48.086;-1.606;2023-03-16T07:41:01;12.90;;;3.88;;
39276;SDS011;63149;48.086;-1.606;2023-03-16T07:43:29;6.10;;;3.00;;
39276;SDS011;63149;48.086;-1.606;2023-03-16T07:45:57;6.22;;;3.95;;
39276;SDS011;63149;48.086;-1.606;2023-03-16T07:48:25;12.07;;;3.75;;
39276;SDS011;63149;48.086;-1.606;2023-03-16T07:50:52;6.82;;;2.90;;
39276;SDS011;63149;48.086;-1.606;2023-03-16T07:53:19;10.38;;;3.42;;
39276;SDS011;63149;48.086;-1.606;2023-03-16T07:55:46;11.35;;;3.40;;
39276;SDS011;63149;48.086;-1.606;2023-03-16T07:58:13;9.82;;;3.03;;
39276;SDS011;63149;48.086;-1.606;2023-03-16T08:00:41;7.45;;;3.35;;
39276;SDS011;63149;48.086;-1.606;2023-03-16T08:03:08;9.55;;;2.92;;
39276;SDS011;63149;48.086;-1.606;2023-03-16T08:05:35;10.93;;;2.95;;
39276;SDS011;63149;48.086;-1.606;2023-03-16T08:08:02;10.50;;;3.50;;
39276;SDS011;63149;48.086;-1.606;2023-03-16T08:10:29;7.57;;;2.78;;
39276;SDS011;63149;48.086;-1.606;2023-03-16T08:12:57;9.00;;;2.58;;
39276;SDS011;63149;48.086;-1.606;2023-03-16T08:15:24;6.78;;;2.38;;
39276;SDS011;63149;48.086;-1.606;2023-03-16T08:17:53;8.77;;;2.28;;
39276;SDS011;63149;48.086;-1.606;2023-03-16T08:20:19;7.85;;;2.30;;
39276;SDS011;63149;48.086;-1.606;2023-03-16T08:22:46;9.88;;;2.45;;
39276;SDS011;63149;48.086;-1.606;2023-03-16T08:25:13;5.70;;;2.30;;
39276;SDS011;63149;48.086;-1.606;2023-03-16T08:27:41;10.50;;;1.85;;
39276;SDS011;63149;48.086;-1.606;2023-03-16T08:30:08;7.93;;;2.72;;
39276;SDS011;63149;48.086;-1.606;2023-03-16T08:32:37;8.95;;;2.28;;
39276;SDS011;63149;48.086;-1.606;2023-03-16T08:35:07;8.00;;;2.35;;
39276;SDS011;63149;48.086;-1.606;2023-03-16T08:37:37;7.93;;;2.38;;
39276;SDS011;63149;48.086;-1.606;2023-03-16T08:40:04;7.03;;;2.90;;
39276;SDS011;63149;48.086;-1.606;2023-03-16T08:42:34;18.17;;;7.35;;
39276;SDS011;63149;48.086;-1.606;2023-03-16T08:45:03;6.45;;;3.05;;
39276;SDS011;63149;48.086;-1.606;2023-03-16T08:47:33;5.10;;;1.45;;
39276;SDS011;63149;48.086;-1.606;2023-03-16T08:50:00;10.48;;;1.73;;
39276;SDS011;63149;48.086;-1.606;2023-03-16T08:52:31;4.43;;;1.80;;
39276;SDS011;63149;48.086;-1.606;2023-03-16T08:55:00;6.13;;;1.77;;
39276;SDS011;63149;48.086;-1.606;2023-03-16T08:57:29;9.75;;;1.90;;
39276;SDS011;63149;48.086;-1.606;2023-03-16T08:59:56;3.05;;;1.70;;
39276;SDS011;63149;48.086;-1.606;2023-03-16T09:02:24;9.80;;;1.88;;
39276;SDS011;63149;48.086;-1.606;2023-03-16T09:04:51;6.85;;;1.80;;
39276;SDS011;63149;48.086;-1.606;2023-03-16T09:07:18;7.75;;;2.03;;
39276;SDS011;63149;48.086;-1.606;2023-03-16T09:09:47;5.15;;;1.90;;
39276;SDS011;63149;48.086;-1.606;2023-03-16T09:12:14;5.00;;;2.20;;
39276;SDS011;63149;48.086;-1.606;2023-03-16T09:14:41;6.78;;;1.83;;
39276;SDS011;63149;48.086;-1.606;2023-03-16T09:17:09;11.27;;;2.20;;
39276;SDS011;63149;48.086;-1.606;2023-03-16T09:19:37;11.25;;;1.83;;
39276;SDS011;63149;48.086;-1.606;2023-03-16T09:22:04;5.28;;;1.70;;
39276;SDS011;63149;48.086;-1.606;2023-03-16T09:24:31;6.03;;;1.60;;
39276;SDS011;63149;48.086;-1.606;2023-03-16T09:27:00;5.18;;;1.50;;
39276;SDS011;63149;48.086;-1.606;2023-03-16T09:29:27;4.03;;;1.60;;
39276;SDS011;63149;48.086;-1.606;2023-03-16T09:31:54;8.25;;;2.22;;
39276;SDS011;63149;48.086;-1.606;2023-03-16T09:34:21;4.85;;;1.85;;
39276;SDS011;63149;48.086;-1.606;2023-03-16T09:36:47;4.50;;;1.58;;
39276;SDS011;63149;48.086;-1.606;2023-03-16T09:39:14;7.63;;;1.45;;
39276;SDS011;63149;48.086;-1.606;2023-03-16T09:41:44;6.00;;;1.60;;
39276;SDS011;63149;48.086;-1.606;2023-03-16T09:44:22;17.25;;;2.92;;
39276;SDS011;63149;48.086;-1.606;2023-03-16T09:46:57;8.10;;;2.00;;
39276;SDS011;63149;48.086;-1.606;2023-03-16T09:49:27;4.47;;;1.25;;
39276;SDS011;63149;48.086;-1.606;2023-03-16T09:52:03;7.00;;;1.60;;
39276;SDS011;63149;48.086;-1.606;2023-03-16T09:54:35;6.82;;;1.38;;
39276;SDS011;63149;48.086;-1.606;2023-03-16T09:57:08;5.35;;;1.42;;
39276;SDS011;63149;48.086;-1.606;2023-03-16T09:59:44;6.25;;;2.00;;
39276;SDS011;63149;48.086;-1.606;2023-03-16T10:02:18;12.98;;;1.92;;
39276;SDS011;63149;48.086;-1.606;2023-03-16T10:05:01;5.18;;;1.40;;
39276;SDS011;63149;48.086;-1.606;2023-03-16T10:07:36;6.65;;;1.48;;
39276;SDS011;63149;48.086;-1.606;2023-03-16T10:10:18;5.03;;;1.80;;
39276;SDS011;63149;48.086;-1.606;2023-03-16T10:12:51;11.07;;;2.05;;
39276;SDS011;63149;48.086;-1.606;2023-03-16T10:15:24;5.22;;;1.50;;
39276;SDS011;63149;48.086;-1.606;2023-03-16T10:17:54;3.15;;;1.40;;
39276;SDS011;63149;48.086;-1.606;2023-03-16T10:20:26;4.70;;;1.88;;
39276;SDS011;63149;48.086;-1.606;2023-03-16T10:22:57;9.27;;;2.17;;
39276;SDS011;63149;48.086;-1.606;2023-03-16T10:25:26;3.17;;;1.60;;
39276;SDS011;63149;48.086;-1.606;2023-03-16T10:27:58;4.95;;;1.85;;
39276;SDS011;63149;48.086;-1.606;2023-03-16T10:30:27;4.47;;;1.60;;
39276;SDS011;63149;48.086;-1.606;2023-03-16T10:32:59;5.45;;;1.88;;
39276;SDS011;63149;48.086;-1.606;2023-03-16T10:35:32;6.68;;;2.15;;
39276;SDS011;63149;48.086;-1.606;2023-03-16T10:38:06;8.10;;;2.03;;
39276;SDS011;63149;48.086;-1.606;2023-03-16T10:40:35;7.35;;;1.90;;
39276;SDS011;63149;48.086;-1.606;2023-03-16T10:43:04;8.88;;;2.22;;
39276;SDS011;63149;48.086;-1.606;2023-03-16T10:45:34;3.58;;;1.90;;
39276;SDS011;63149;48.086;-1.606;2023-03-16T10:48:06;5.25;;;1.90;;
39276;SDS011;63149;48.086;-1.606;2023-03-16T10:50:34;7.72;;;1.60;;
39276;SDS011;63149;48.086;-1.606;2023-03-16T10:53:01;11.45;;;2.00;;
39276;SDS011;63149;48.086;-1.606;2023-03-16T10:55:29;2.47;;;1.58;;
39276;SDS011;63149;48.086;-1.606;2023-03-16T10:57:59;8.68;;;2.13;;
39276;SDS011;63149;48.086;-1.606;2023-03-16T11:00:26;3.92;;;2.03;;
39276;SDS011;63149;48.086;-1.606;2023-03-16T11:02:57;7.70;;;2.15;;
39276;SDS011;63149;48.086;-1.606;2023-03-16T11:05:27;4.63;;;2.28;;
39276;SDS011;63149;48.086;-1.606;2023-03-16T11:07:59;5.03;;;1.90;;
39276;SDS011;63149;48.086;-1.606;2023-03-16T11:10:28;3.20;;;1.67;;
39276;SDS011;63149;48.086;-1.606;2023-03-16T11:13:01;7.88;;;2.05;;
39276;SDS011;63149;48.086;-1.606;2023-03-16T11:15:35;5.47;;;1.85;;
39276;SDS011;63149;48.086;-1.606;2023-03-16T11:18:05;5.90;;;2.75;;
39276;SDS011;63149;48.086;-1.606;2023-03-16T11:20:34;10.25;;;2.22;;
39276;SDS011;63149;48.086;-1.606;2023-03-16T11:23:02;4.22;;;1.60;;
39276;SDS011;63149;48.086;-1.606;2023-03-16T11:25:37;4.90;;;1.55;;
39276;SDS011;63149;48.086;-1.606;2023-03-16T11:28:12;6.07;;;1.60;;
39276;SDS011;63149;48.086;-1.606;2023-03-16T11:30:43;4.47;;;1.48;;
39276;SDS011;63149;48.086;-1.606;2023-03-16T11:33:17;3.33;;;1.30;;
39276;SDS011;63149;48.086;-1.606;2023-03-16T11:35:48;2.28;;;1.38;;
39276;SDS011;63149;48.086;-1.606;2023-03-16T11:38:24;3.42;;;1.85;;
39276;SDS011;63149;48.086;-1.606;2023-03-16T11:40:57;5.18;;;1.48;;
39276;SDS011;63149;48.086;-1.606;2023-03-16T11:43:34;4.40;;;1.88;;
39276;SDS011;63149;48.086;-1.606;2023-03-16T11:46:18;6.47;;;1.67;;
39276;SDS011;63149;48.086;-1.606;2023-03-16T11:48:54;5.75;;;1.52;;
39276;SDS011;63149;48.086;-1.606;2023-03-16T11:54:16;4.40;;;1.55;;
39276;SDS011;63149;48.086;-1.606;2023-03-16T11:57:05;4.38;;;1.70;;
39276;SDS011;63149;48.086;-1.606;2023-03-16T11:59:54;7.07;;;2.40;;
39276;SDS011;63149;48.086;-1.606;2023-03-16T12:02:32;9.43;;;2.33;;
39276;SDS011;63149;48.086;-1.606;2023-03-16T12:08:03;4.65;;;1.42;;
39276;SDS011;63149;48.086;-1.606;2023-03-16T12:10:59;9.48;;;2.40;;
39276;SDS011;63149;48.086;-1.606;2023-03-16T12:13:36;9.25;;;1.60;;
39276;SDS011;63149;48.086;-1.606;2023-03-16T12:16:20;6.68;;;1.73;;
39276;SDS011;63149;48.086;-1.606;2023-03-16T12:18:53;4.55;;;1.40;;
39276;SDS011;63149;48.086;-1.606;2023-03-16T12:21:28;6.65;;;1.50;;
39276;SDS011;63149;48.086;-1.606;2023-03-16T12:23:58;6.35;;;1.90;;
39276;SDS011;63149;48.086;-1.606;2023-03-16T12:26:29;11.02;;;2.65;;
39276;SDS011;63149;48.086;-1.606;2023-03-16T12:29:02;9.43;;;1.85;;
39276;SDS011;63149;48.086;-1.606;2023-03-16T12:31:40;4.25;;;1.75;;
39276;SDS011;63149;48.086;-1.606;2023-03-16T12:34:18;6.05;;;1.80;;
39276;SDS011;63149;48.086;-1.606;2023-03-16T12:37:01;8.30;;;1.80;;
39276;SDS011;63149;48.086;-1.606;2023-03-16T12:39:58;9.13;;;1.83;;
39276;SDS011;63149;48.086;-1.606;2023-03-16T12:42:41;5.63;;;1.48;;
39276;SDS011;63149;48.086;-1.606;2023-03-16T12:45:20;6.88;;;1.85;;
39276;SDS011;63149;48.086;-1.606;2023-03-16T12:47:57;3.72;;;1.33;;
39276;SDS011;63149;48.086;-1.606;2023-03-16T12:50:33;3.58;;;1.95;;
39276;SDS011;63149;48.086;-1.606;2023-03-16T12:53:01;3.08;;;1.50;;
39276;SDS011;63149;48.086;-1.606;2023-03-16T12:55:38;3.33;;;1.80;;
39276;SDS011;63149;48.086;-1.606;2023-03-16T12:58:09;3.03;;;1.38;;
39276;SDS011;63149;48.086;-1.606;2023-03-16T13:00:37;4.45;;;1.20;;
39276;SDS011;63149;48.086;-1.606;2023-03-16T13:03:10;2.53;;;1.10;;
39276;SDS011;63149;48.086;-1.606;2023-03-16T13:05:43;2.97;;;1.23;;
39276;SDS011;63149;48.086;-1.606;2023-03-16T13:08:14;5.15;;;1.48;;
39276;SDS011;63149;48.086;-1.606;2023-03-16T13:10:43;5.25;;;1.50;;
39276;SDS011;63149;48.086;-1.606;2023-03-16T13:13:25;3.35;;;1.77;;
39276;SDS011;63149;48.086;-1.606;2023-03-16T13:16:00;5.45;;;1.30;;
39276;SDS011;63149;48.086;-1.606;2023-03-16T13:18:33;5.55;;;1.40;;
39276;SDS011;63149;48.086;-1.606;2023-03-16T13:21:12;4.80;;;1.77;;
39276;SDS011;63149;48.086;-1.606;2023-03-16T13:23:58;5.63;;;1.55;;
39276;SDS011;63149;48.086;-1.606;2023-03-16T13:26:38;4.60;;;1.17;;
39276;SDS011;63149;48.086;-1.606;2023-03-16T13:29:20;3.50;;;1.30;;
39276;SDS011;63149;48.086;-1.606;2023-03-16T13:31:50;3.42;;;1.33;;
39276;SDS011;63149;48.086;-1.606;2023-03-16T13:34:19;8.00;;;1.27;;
39276;SDS011;63149;48.086;-1.606;2023-03-16T13:36:48;7.13;;;1.80;;
39276;SDS011;63149;48.086;-1.606;2023-03-16T13:39:22;4.35;;;1.63;;
39276;SDS011;63149;48.086;-1.606;2023-03-16T13:41:55;4.90;;;1.40;;
39276;SDS011;63149;48.086;-1.606;2023-03-16T13:44:25;3.65;;;1.38;;
39276;SDS011;63149;48.086;-1.606;2023-03-16T13:46:53;4.20;;;1.60;;
39276;SDS011;63149;48.086;-1.606;2023-03-16T13:49:20;2.97;;;1.50;;
39276;SDS011;63149;48.086;-1.606;2023-03-16T13:51:47;6.70;;;1.70;;
39276;SDS011;63149;48.086;-1.606;2023-03-16T13:54:20;7.88;;;1.52;;
39276;SDS011;63149;48.086;-1.606;2023-03-16T13:56:52;3.50;;;1.60;;
39276;SDS011;63149;48.086;-1.606;2023-03-16T13:59:22;3.20;;;1.30;;
39276;SDS011;63149;48.086;-1.606;2023-03-16T14:01:53;5.63;;;1.58;;
39276;SDS011;63149;48.086;-1.606;2023-03-16T14:04:22;2.22;;;1.33;;
39276;SDS011;63149;48.086;-1.606;2023-03-16T14:06:53;4.88;;;1.40;;
39276;SDS011;63149;48.086;-1.606;2023-03-16T14:09:23;4.15;;;1.75;;
39276;SDS011;63149;48.086;-1.606;2023-03-16T14:11:53;10.20;;;1.63;;
39276;SDS011;63149;48.086;-1.606;2023-03-16T14:14:26;4.43;;;1.50;;
39276;SDS011;63149;48.086;-1.606;2023-03-16T14:16:58;6.70;;;1.63;;
39276;SDS011;63149;48.086;-1.606;2023-03-16T14:19:29;4.47;;;1.65;;
39276;SDS011;63149;48.086;-1.606;2023-03-16T14:22:02;3.90;;;2.10;;
39276;SDS011;63149;48.086;-1.606;2023-03-16T14:24:32;6.72;;;1.42;;
39276;SDS011;63149;48.086;-1.606;2023-03-16T14:29:49;7.10;;;1.95;;
39276;SDS011;63149;48.086;-1.606;2023-03-16T14:32:20;5.78;;;1.65;;
39276;SDS011;63149;48.086;-1.606;2023-03-16T14:34:52;4.45;;;1.45;;
39276;SDS011;63149;48.086;-1.606;2023-03-16T14:37:32;4.45;;;1.60;;
39276;SDS011;63149;48.086;-1.606;2023-03-16T14:40:03;7.45;;;2.03;;
39276;SDS011;63149;48.086;-1.606;2023-03-16T14:42:31;5.03;;;1.87;;
39276;SDS011;63149;48.086;-1.606;2023-03-16T14:44:59;7.10;;;2.08;;
39276;SDS011;63149;48.086;-1.606;2023-03-16T14:47:30;2.08;;;1.40;;
39276;SDS011;63149;48.086;-1.606;2023-03-16T14:50:05;4.18;;;1.65;;
39276;SDS011;63149;48.086;-1.606;2023-03-16T14:52:35;6.55;;;1.92;;
39276;SDS011;63149;48.086;-1.606;2023-03-16T14:55:08;5.03;;;1.35;;
39276;SDS011;63149;48.086;-1.606;2023-03-16T14:57:38;5.13;;;1.52;;
39276;SDS011;63149;48.086;-1.606;2023-03-16T15:00:07;4.30;;;2.05;;
39276;SDS011;63149;48.086;-1.606;2023-03-16T15:02:36;4.88;;;1.83;;
39276;SDS011;63149;48.086;-1.606;2023-03-16T15:05:05;4.80;;;1.48;;
39276;SDS011;63149;48.086;-1.606;2023-03-16T15:07:34;6.72;;;1.50;;
39276;SDS011;63149;48.086;-1.606;2023-03-16T15:10:07;6.32;;;1.60;;
39276;SDS011;63149;48.086;-1.606;2023-03-16T15:12:46;6.20;;;1.77;;
39276;SDS011;63149;48.086;-1.606;2023-03-16T15:15:19;2.50;;;1.50;;
39276;SDS011;63149;48.086;-1.606;2023-03-16T15:17:48;7.75;;;1.80;;
39276;SDS011;63149;48.086;-1.606;2023-03-16T15:20:17;5.25;;;1.33;;
39276;SDS011;63149;48.086;-1.606;2023-03-16T15:22:47;8.73;;;2.13;;
39276;SDS011;63149;48.086;-1.606;2023-03-16T15:25:22;2.20;;;1.10;;
39276;SDS011;63149;48.086;-1.606;2023-03-16T15:27:53;3.05;;;1.45;;
39276;SDS011;63149;48.086;-1.606;2023-03-16T15:30:21;8.07;;;1.77;;
39276;SDS011;63149;48.086;-1.606;2023-03-16T15:32:50;4.63;;;1.25;;
39276;SDS011;63149;48.086;-1.606;2023-03-16T15:35:18;8.07;;;1.98;;
39276;SDS011;63149;48.086;-1.606;2023-03-16T15:37:45;5.45;;;1.50;;
39276;SDS011;63149;48.086;-1.606;2023-03-16T15:40:14;4.80;;;1.70;;
39276;SDS011;63149;48.086;-1.606;2023-03-16T15:42:44;5.07;;;1.40;;
39276;SDS011;63149;48.086;-1.606;2023-03-16T15:45:12;5.70;;;1.63;;
39276;SDS011;63149;48.086;-1.606;2023-03-16T15:47:41;4.75;;;1.85;;
39276;SDS011;63149;48.086;-1.606;2023-03-16T15:50:09;5.07;;;1.75;;
39276;SDS011;63149;48.086;-1.606;2023-03-16T15:52:38;4.55;;;1.25;;
39276;SDS011;63149;48.086;-1.606;2023-03-16T15:55:12;4.00;;;1.58;;
39276;SDS011;63149;48.086;-1.606;2023-03-16T15:57:45;6.15;;;1.63;;
39276;SDS011;63149;48.086;-1.606;2023-03-16T16:00:26;6.88;;;1.83;;
39276;SDS011;63149;48.086;-1.606;2023-03-16T16:05:23;7.45;;;2.70;;
39276;SDS011;63149;48.086;-1.606;2023-03-16T16:07:51;9.55;;;3.22;;
39276;SDS011;63149;48.086;-1.606;2023-03-16T16:10:19;9.55;;;4.18;;
39276;SDS011;63149;48.086;-1.606;2023-03-16T16:12:47;11.50;;;5.13;;
39276;SDS011;63149;48.086;-1.606;2023-03-16T16:15:20;9.07;;;3.83;;
39276;SDS011;63149;48.086;-1.606;2023-03-16T16:17:49;14.93;;;4.28;;
39276;SDS011;63149;48.086;-1.606;2023-03-16T16:20:21;6.22;;;2.53;;
39276;SDS011;63149;48.086;-1.606;2023-03-16T16:22:50;5.15;;;2.50;;
39276;SDS011;63149;48.086;-1.606;2023-03-16T16:25:18;5.28;;;2.42;;
39276;SDS011;63149;48.086;-1.606;2023-03-16T16:27:49;10.30;;;2.97;;
39276;SDS011;63149;48.086;-1.606;2023-03-16T16:30:18;7.97;;;3.17;;
39276;SDS011;63149;48.086;-1.606;2023-03-16T16:32:47;9.40;;;2.27;;
39276;SDS011;63149;48.086;-1.606;2023-03-16T16:35:16;5.55;;;2.20;;
39276;SDS011;63149;48.086;-1.606;2023-03-16T16:37:44;6.07;;;2.03;;
39276;SDS011;63149;48.086;-1.606;2023-03-16T16:40:16;7.95;;;1.80;;
39276;SDS011;63149;48.086;-1.606;2023-03-16T16:42:44;5.85;;;1.85;;
39276;SDS011;63149;48.086;-1.606;2023-03-16T16:45:17;6.75;;;2.10;;
39276;SDS011;63149;48.086;-1.606;2023-03-16T16:47:46;6.70;;;1.95;;
39276;SDS011;63149;48.086;-1.606;2023-03-16T16:50:17;8.57;;;2.25;;
39276;SDS011;63149;48.086;-1.606;2023-03-16T16:52:46;5.05;;;1.88;;
39276;SDS011;63149;48.086;-1.606;2023-03-16T16:55:13;6.35;;;1.85;;
39276;SDS011;63149;48.086;-1.606;2023-03-16T16:57:40;6.45;;;1.83;;
39276;SDS011;63149;48.086;-1.606;2023-03-16T17:02:46;7.60;;;3.00;;
39276;SDS011;63149;48.086;-1.606;2023-03-16T17:05:16;4.10;;;2.30;;
39276;SDS011;63149;48.086;-1.606;2023-03-16T17:07:45;11.40;;;3.22;;
39276;SDS011;63149;48.086;-1.606;2023-03-16T17:10:14;10.18;;;3.22;;
39276;SDS011;63149;48.086;-1.606;2023-03-16T17:12:42;13.98;;;3.28;;
39276;SDS011;63149;48.086;-1.606;2023-03-16T17:15:21;7.28;;;3.25;;
39276;SDS011;63149;48.086;-1.606;2023-03-16T17:20:27;6.65;;;2.25;;
39276;SDS011;63149;48.086;-1.606;2023-03-16T17:22:55;7.85;;;2.72;;
39276;SDS011;63149;48.086;-1.606;2023-03-16T17:25:24;10.35;;;2.15;;
39276;SDS011;63149;48.086;-1.606;2023-03-16T17:27:52;8.10;;;2.35;;
39276;SDS011;63149;48.086;-1.606;2023-03-16T17:30:24;5.63;;;1.92;;
39276;SDS011;63149;48.086;-1.606;2023-03-16T17:32:53;7.85;;;2.97;;
39276;SDS011;63149;48.086;-1.606;2023-03-16T17:37:51;8.25;;;2.25;;
39276;SDS011;63149;48.086;-1.606;2023-03-16T17:40:19;7.47;;;2.60;;
39276;SDS011;63149;48.086;-1.606;2023-03-16T17:42:49;5.03;;;2.28;;
39276;SDS011;63149;48.086;-1.606;2023-03-16T17:45:18;5.43;;;2.00;;
39276;SDS011;63149;48.086;-1.606;2023-03-16T17:47:48;5.32;;;2.08;;
39276;SDS011;63149;48.086;-1.606;2023-03-16T17:50:17;6.78;;;2.53;;
39276;SDS011;63149;48.086;-1.606;2023-03-16T17:52:46;9.77;;;2.50;;
39276;SDS011;63149;48.086;-1.606;2023-03-16T17:55:13;5.93;;;2.20;;
39276;SDS011;63149;48.086;-1.606;2023-03-16T17:57:44;4.70;;;1.80;;
39276;SDS011;63149;48.086;-1.606;2023-03-16T18:00:20;9.02;;;2.65;;
39276;SDS011;63149;48.086;-1.606;2023-03-16T18:02:52;8.75;;;2.17;;
39276;SDS011;63149;48.086;-1.606;2023-03-16T18:05:21;9.30;;;2.67;;
39276;SDS011;63149;48.086;-1.606;2023-03-16T18:07:50;9.55;;;2.90;;
39276;SDS011;63149;48.086;-1.606;2023-03-16T18:10:19;12.18;;;2.92;;
39276;SDS011;63149;48.086;-1.606;2023-03-16T18:12:48;7.03;;;2.83;;
39276;SDS011;63149;48.086;-1.606;2023-03-16T18:15:21;11.43;;;3.35;;
39276;SDS011;63149;48.086;-1.606;2023-03-16T18:17:53;5.65;;;3.05;;
39276;SDS011;63149;48.086;-1.606;2023-03-16T18:20:21;10.73;;;2.60;;
39276;SDS011;63149;48.086;-1.606;2023-03-16T18:25:29;10.32;;;2.55;;
39276;SDS011;63149;48.086;-1.606;2023-03-16T18:27:58;5.50;;;2.22;;
39276;SDS011;63149;48.086;-1.606;2023-03-16T18:30:25;8.13;;;2.25;;
39276;SDS011;63149;48.086;-1.606;2023-03-16T18:32:54;14.43;;;2.78;;
39276;SDS011;63149;48.086;-1.606;2023-03-16T18:35:23;7.82;;;2.45;;
39276;SDS011;63149;48.086;-1.606;2023-03-16T18:37:51;9.30;;;2.70;;
39276;SDS011;63149;48.086;-1.606;2023-03-16T18:40:19;7.68;;;2.80;;
39276;SDS011;63149;48.086;-1.606;2023-03-16T18:42:49;11.95;;;2.85;;
39276;SDS011;63149;48.086;-1.606;2023-03-16T18:45:17;7.90;;;2.60;;
39276;SDS011;63149;48.086;-1.606;2023-03-16T18:47:46;7.63;;;3.35;;
39276;SDS011;63149;48.086;-1.606;2023-03-16T18:50:19;14.45;;;2.53;;
39276;SDS011;63149;48.086;-1.606;2023-03-16T18:52:48;13.82;;;3.20;;
39276;SDS011;63149;48.086;-1.606;2023-03-16T18:55:17;14.07;;;3.90;;
39276;SDS011;63149;48.086;-1.606;2023-03-16T18:57:46;7.70;;;2.90;;
39276;SDS011;63149;48.086;-1.606;2023-03-16T19:00:17;9.45;;;3.35;;
39276;SDS011;63149;48.086;-1.606;2023-03-16T19:02:47;7.40;;;3.13;;
39276;SDS011;63149;48.086;-1.606;2023-03-16T19:05:24;12.65;;;3.13;;
39276;SDS011;63149;48.086;-1.606;2023-03-16T19:07:57;8.63;;;2.72;;
39276;SDS011;63149;48.086;-1.606;2023-03-16T19:10:25;9.10;;;2.97;;
39276;SDS011;63149;48.086;-1.606;2023-03-16T19:12:55;14.27;;;3.38;;
39276;SDS011;63149;48.086;-1.606;2023-03-16T19:15:24;14.63;;;4.72;;
39276;SDS011;63149;48.086;-1.606;2023-03-16T19:17:53;16.40;;;4.55;;
39276;SDS011;63149;48.086;-1.606;2023-03-16T19:20:22;14.95;;;4.47;;
39276;SDS011;63149;48.086;-1.606;2023-03-16T19:22:51;12.50;;;5.45;;
39276;SDS011;63149;48.086;-1.606;2023-03-16T19:25:27;20.05;;;5.30;;
39276;SDS011;63149;48.086;-1.606;2023-03-16T19:27:54;14.70;;;4.80;;
39276;SDS011;63149;48.086;-1.606;2023-03-16T19:30:23;17.38;;;4.63;;
39276;SDS011;63149;48.086;-1.606;2023-03-16T19:32:52;15.20;;;4.20;;
39276;SDS011;63149;48.086;-1.606;2023-03-16T19:35:22;13.40;;;4.80;;
39276;SDS011;63149;48.086;-1.606;2023-03-16T19:37:51;20.88;;;4.35;;
39276;SDS011;63149;48.086;-1.606;2023-03-16T19:40:19;16.33;;;4.72;;
39276;SDS011;63149;48.086;-1.606;2023-03-16T19:42:48;16.25;;;4.85;;
39276;SDS011;63149;48.086;-1.606;2023-03-16T19:45:17;14.88;;;5.80;;
39276;SDS011;63149;48.086;-1.606;2023-03-16T19:47:48;11.40;;;4.60;;
39276;SDS011;63149;48.086;-1.606;2023-03-16T19:50:16;17.00;;;5.32;;
39276;SDS011;63149;48.086;-1.606;2023-03-16T19:52:46;19.70;;;6.75;;
39276;SDS011;63149;48.086;-1.606;2023-03-16T19:55:17;19.73;;;7.20;;
39276;SDS011;63149;48.086;-1.606;2023-03-16T19:57:46;15.40;;;7.85;;
39276;SDS011;63149;48.086;-1.606;2023-03-16T20:00:17;25.13;;;6.50;;
39276;SDS011;63149;48.086;-1.606;2023-03-16T20:02:47;15.50;;;6.00;;
39276;SDS011;63149;48.086;-1.606;2023-03-16T20:05:16;23.27;;;6.57;;
39276;SDS011;63149;48.086;-1.606;2023-03-16T20:07:46;15.35;;;5.35;;
39276;SDS011;63149;48.086;-1.606;2023-03-16T20:10:18;14.63;;;4.45;;
39276;SDS011;63149;48.086;-1.606;2023-03-16T20:12:47;19.20;;;5.82;;
39276;SDS011;63149;48.086;-1.606;2023-03-16T20:15:16;14.45;;;4.97;;
39276;SDS011;63149;48.086;-1.606;2023-03-16T20:17:45;12.98;;;4.75;;
39276;SDS011;63149;48.086;-1.606;2023-03-16T20:20:17;16.45;;;4.63;;
39276;SDS011;63149;48.086;-1.606;2023-03-16T20:22:47;15.73;;;4.43;;
39276;SDS011;63149;48.086;-1.606;2023-03-16T20:25:14;16.08;;;4.38;;
39276;SDS011;63149;48.086;-1.606;2023-03-16T20:27:41;11.20;;;4.32;;
39276;SDS011;63149;48.086;-1.606;2023-03-16T20:30:13;9.77;;;3.70;;
39276;SDS011;63149;48.086;-1.606;2023-03-16T20:32:44;13.25;;;4.18;;
39276;SDS011;63149;48.086;-1.606;2023-03-16T20:35:15;15.48;;;4.18;;
39276;SDS011;63149;48.086;-1.606;2023-03-16T20:37:44;11.60;;;3.33;;
39276;SDS011;63149;48.086;-1.606;2023-03-16T20:40:13;17.05;;;4.07;;
39276;SDS011;63149;48.086;-1.606;2023-03-16T20:42:40;18.42;;;3.58;;
39276;SDS011;63149;48.086;-1.606;2023-03-16T20:45:18;14.80;;;5.13;;
39276;SDS011;63149;48.086;-1.606;2023-03-16T20:47:48;9.25;;;3.05;;
39276;SDS011;63149;48.086;-1.606;2023-03-16T20:50:19;15.43;;;3.33;;
39276;SDS011;63149;48.086;-1.606;2023-03-16T20:52:49;12.90;;;3.22;;
39276;SDS011;63149;48.086;-1.606;2023-03-16T20:55:20;12.60;;;3.33;;
39276;SDS011;63149;48.086;-1.606;2023-03-16T20:57:50;11.00;;;3.33;;
39276;SDS011;63149;48.086;-1.606;2023-03-16T21:00:27;15.13;;;3.58;;
39276;SDS011;63149;48.086;-1.606;2023-03-16T21:02:57;7.05;;;2.90;;
39276;SDS011;63149;48.086;-1.606;2023-03-16T21:05:26;13.35;;;3.60;;
39276;SDS011;63149;48.086;-1.606;2023-03-16T21:07:53;8.90;;;3.08;;
39276;SDS011;63149;48.086;-1.606;2023-03-16T21:10:23;21.52;;;7.07;;
39276;SDS011;63149;48.086;-1.606;2023-03-16T21:12:52;35.38;;;11.30;;